KLM64E EHAM-SAEZ
Flight info
| Callsign | KLM64E |
|---|---|
| Flight time | N/A |
| Altitude | 30000 |
| Route | VALKO3S IDRID L980 MANGO DCT ENHAQ DCT GAJIT DCT GAPLI/M085F300 DCT OMOKO DCT 45N020W 39N030W/M085F320 32N035W 25N040W/M085F340 2324N04117W DCT URICO/N0502F340 DCT TODIS DCT 05N044W 01N044W/N0495F360 DCT SLI UZ2 PULUV UZ5 KUKOL UM532 MORDA/N0486F380 UM532 CUARA UL324 KUKEN KUKEN6A |
| Aircraft | B77W/H-SDE1E2E3FGHIJ2J3J4J5M1RWXY/LB1D1 |
Departure
| Time | N/A |
|---|---|
| Airport | Amsterdam Airport Schiphol (EHAM) |
Arrival
| Time | 2026-05-05 11:49 |
|---|---|
| Airport | Ezeiza International Airport - Ministro Pistarini (SAEZ) |
| Time | Latitude | Longitude | Altitude | Speed | Heading |
|---|---|---|---|---|---|
| 2026-05-05 11:34 | -34.18908 | -58.21990 | 19197 ft | 405 kts | 207° |
| 2026-05-05 11:34 | -34.21479 | -58.23248 | 18613 ft | 403 kts | 207° |
| 2026-05-05 11:34 | -34.24065 | -58.24523 | 17990 ft | 401 kts | 207° |
| 2026-05-05 11:34 | -34.26640 | -58.25797 | 17344 ft | 398 kts | 207° |
| 2026-05-05 11:35 | -34.29198 | -58.27063 | 16752 ft | 395 kts | 207° |
| 2026-05-05 11:35 | -34.31736 | -58.28319 | 16154 ft | 393 kts | 207° |
| 2026-05-05 11:35 | -34.34259 | -58.29568 | 15577 ft | 391 kts | 207° |
| 2026-05-05 11:35 | -34.36771 | -58.30812 | 15001 ft | 389 kts | 207° |
| 2026-05-05 11:36 | -34.39276 | -58.32052 | 14428 ft | 388 kts | 206° |
| 2026-05-05 11:36 | -34.41779 | -58.33293 | 13847 ft | 388 kts | 206° |
| 2026-05-05 11:36 | -34.44275 | -58.34531 | 13212 ft | 387 kts | 206° |
| 2026-05-05 11:36 | -34.46771 | -58.35768 | 12634 ft | 386 kts | 206° |
| 2026-05-05 11:37 | -34.48415 | -58.36584 | 12249 ft | 385 kts | 206° |
| 2026-05-05 11:37 | -34.51691 | -58.38210 | 11479 ft | 383 kts | 206° |
| 2026-05-05 11:37 | -34.53350 | -58.39035 | 11095 ft | 382 kts | 206° |
| 2026-05-05 11:37 | -34.56541 | -58.40617 | 10809 ft | 357 kts | 206° |
| 2026-05-05 11:38 | -34.58041 | -58.41357 | 10680 ft | 333 kts | 206° |
| 2026-05-05 11:38 | -34.60093 | -58.42370 | 10537 ft | 303 kts | 206° |
| 2026-05-05 11:38 | -34.61956 | -58.43294 | 10405 ft | 276 kts | 207° |
| 2026-05-05 11:38 | -34.63663 | -58.44144 | 10297 ft | 263 kts | 207° |
| 2026-05-05 11:39 | -34.65426 | -58.45036 | 10268 ft | 288 kts | 207° |
| 2026-05-05 11:39 | -34.67331 | -58.45998 | 10112 ft | 300 kts | 206° |
| 2026-05-05 11:39 | -34.69235 | -58.46950 | 9920 ft | 300 kts | 206° |
| 2026-05-05 11:39 | -34.71173 | -58.47917 | 9547 ft | 301 kts | 206° |
| 2026-05-05 11:40 | -34.73113 | -58.48883 | 9191 ft | 300 kts | 206° |
| 2026-05-05 11:40 | -34.75041 | -58.49846 | 8841 ft | 296 kts | 206° |
| 2026-05-05 11:40 | -34.76907 | -58.50775 | 8475 ft | 284 kts | 206° |
| 2026-05-05 11:40 | -34.78690 | -58.51664 | 8163 ft | 270 kts | 206° |
| 2026-05-05 11:41 | -34.80335 | -58.52628 | 7766 ft | 255 kts | 221° |
| 2026-05-05 11:41 | -34.81396 | -58.54261 | 7387 ft | 243 kts | 252° |
| 2026-05-05 11:41 | -34.81751 | -58.56216 | 7254 ft | 229 kts | 270° |
| 2026-05-05 11:41 | -34.81622 | -58.58106 | 7013 ft | 223 kts | 283° |
| 2026-05-05 11:42 | -34.81275 | -58.59936 | 6752 ft | 220 kts | 285° |
| 2026-05-05 11:42 | -34.80911 | -58.61734 | 6471 ft | 216 kts | 285° |
| 2026-05-05 11:42 | -34.80568 | -58.63443 | 6177 ft | 206 kts | 285° |
| 2026-05-05 11:42 | -34.80239 | -58.65117 | 5973 ft | 201 kts | 285° |
| 2026-05-05 11:43 | -34.79918 | -58.66772 | 5681 ft | 202 kts | 285° |
| 2026-05-05 11:43 | -34.79600 | -58.68430 | 5400 ft | 201 kts | 285° |
| 2026-05-05 11:43 | -34.79285 | -58.70080 | 5147 ft | 200 kts | 285° |
| 2026-05-05 11:43 | -34.78972 | -58.71725 | 4888 ft | 198 kts | 285° |
| 2026-05-05 11:44 | -34.78662 | -58.73353 | 4634 ft | 196 kts | 286° |
| 2026-05-05 11:44 | -34.78082 | -58.74832 | 4099 ft | 198 kts | 314° |
| 2026-05-05 11:44 | -34.76915 | -58.75638 | 3695 ft | 192 kts | 344° |
| 2026-05-05 11:44 | -34.75593 | -58.75636 | 3514 ft | 196 kts | 13° |
| 2026-05-05 11:45 | -34.74375 | -58.74739 | 3455 ft | 219 kts | 45° |
| 2026-05-05 11:45 | -34.73737 | -58.73045 | 3319 ft | 227 kts | 85° |
| 2026-05-05 11:45 | -34.74139 | -58.71229 | 3083 ft | 226 kts | 129° |
| 2026-05-05 11:45 | -34.75398 | -58.70233 | 2877 ft | 210 kts | 166° |
| 2026-05-05 11:46 | -34.76754 | -58.69764 | 2661 ft | 197 kts | 162° |
| 2026-05-05 11:46 | -34.78048 | -58.69258 | 2373 ft | 196 kts | 167° |
| 2026-05-05 11:46 | -34.79223 | -58.68524 | 2160 ft | 190 kts | 132° |
| 2026-05-05 11:46 | -34.79787 | -58.67065 | 1992 ft | 195 kts | 103° |
| 2026-05-05 11:47 | -34.80080 | -58.65444 | 1735 ft | 197 kts | 103° |
| 2026-05-05 11:47 | -34.80376 | -58.63836 | 1461 ft | 189 kts | 102° |
| 2026-05-05 11:47 | -34.80643 | -58.62349 | 1210 ft | 170 kts | 102° |
| 2026-05-05 11:47 | -34.80879 | -58.61033 | 994 ft | 150 kts | 101° |
| 2026-05-05 11:48 | -34.81309 | -58.58639 | 651 ft | 143 kts | 102° |
| 2026-05-05 11:48 | -34.81517 | -58.57479 | 451 ft | 141 kts | 102° |
| 2026-05-05 11:48 | -34.81716 | -58.56349 | 264 ft | 135 kts | 103° |
| 2026-05-05 11:49 | -34.81925 | -58.55221 | 124 ft | 140 kts | 103° |
| 2026-05-05 11:49 | -34.82127 | -58.54108 | 91 ft | 121 kts | 102° |
| 2026-05-05 11:49 | -34.82266 | -58.53330 | 89 ft | 68 kts | 102° |
| 2026-05-05 11:49 | -34.82335 | -58.52943 | 90 ft | 25 kts | 96° |
| 2026-05-05 11:50 | -34.82274 | -58.52884 | 91 ft | 9 kts | 360° |
| 2026-05-05 11:50 | -34.82167 | -58.52927 | 89 ft | 26 kts | 339° |
| 2026-05-05 11:50 | -34.82067 | -58.52973 | 89 ft | 15 kts | 327° |
| 2026-05-05 11:50 | -34.82001 | -58.53143 | 84 ft | 17 kts | 282° |
| 2026-05-05 11:51 | -34.81952 | -58.53394 | 84 ft | 37 kts | 283° |
| 2026-05-05 11:51 | -34.81893 | -58.53619 | 82 ft | 19 kts | 309° |
| 2026-05-05 11:51 | -34.81733 | -58.53727 | 84 ft | 25 kts | 334° |
| 2026-05-05 11:51 | -34.81602 | -58.53738 | 83 ft | 22 kts | 40° |
| 2026-05-05 11:52 | -34.81463 | -58.53628 | 82 ft | 30 kts | 22° |
| 2026-05-05 11:52 | -34.81330 | -58.53586 | 83 ft | 15 kts | 359° |
| 2026-05-05 11:52 | -34.81280 | -58.53627 | 85 ft | 9 kts | 263° |
| 2026-05-05 11:52 | -34.81297 | -58.53683 | 86 ft | 1 kts | 246° |
| 2026-05-05 11:53 | -34.81302 | -58.53698 | 83 ft | 3 kts | 245° |
| 2026-05-05 11:53 | -34.81305 | -58.53706 | 85 ft | 0 kts | 245° |